This is the latest recevied weather packets stored in our database for station/object DM8MH-13. If no packets are shown the sender has not sent any weather packets the latest 10 day(s).
| Time | Temp. | Humidity | Pressure | Rain* | Wind** | Luminosity | Snow |
|---|---|---|---|---|---|---|---|
| 1777925472 | 17.78° C | 70% | 1012.6 hPa | 0 mm | - | 0 W/m² | - |
| 1777924872 | 17.78° C | 72% | 1012.5 hPa | 0 mm | - | 0 W/m² | - |
| 1777924271 | 18.33° C | 71% | 1012.2 hPa | 0 mm | - | 0 W/m² | - |
| 1777923672 | 18.89° C | 66% | 1012 hPa | 0 mm | - | 0 W/m² | - |
| 1777923072 | 18.89° C | 64% | 1011.8 hPa | 0 mm | - | 0 W/m² | - |
| 1777922472 | 19.44° C | 64% | 1011.7 hPa | 0 mm | - | 0 W/m² | - |
| 1777921871 | 20° C | 64% | 1011.2 hPa | 0 mm | - | 0 W/m² | - |
| 1777921271 | 20.56° C | 61% | 1010.9 hPa | 0 mm | - | 0 W/m² | - |
| 1777920671 | 20.56° C | 62% | 1010.7 hPa | 0 mm | - | 0 W/m² | - |
| 1777920072 | 21.11° C | 60% | 1010.7 hPa | 0 mm | - | 0 W/m² | - |
| 1777919472 | 21.11° C | 59% | 1010.7 hPa | 0 mm | - | 5 W/m² | - |
| 1777918871 | 21.11° C | 59% | 1010.6 hPa | 0 mm | - | 10 W/m² | - |
| 1777918271 | 21.67° C | 58% | 1010.6 hPa | 0 mm | - | 14 W/m² | - |
| 1777917672 | 21.67° C | 57% | 1010.6 hPa | 0 mm | - | 18 W/m² | - |
| 1777917071 | 21.67° C | 56% | 1010.6 hPa | 0 mm | - | 23 W/m² | - |
| 1777916471 | 22.22° C | 56% | 1010.6 hPa | 0 mm | - | 35 W/m² | - |
| 1777915871 | 22.22° C | 55% | 1010.6 hPa | 0 mm | - | 44 W/m² | - |
| 1777915272 | 22.22° C | 53% | 1010.5 hPa | 0 mm | - | 54 W/m² | - |
| 1777914672 | 22.78° C | 54% | 1010.6 hPa | 0 mm | - | 70 W/m² | - |
| 1777914071 | 22.78° C | 54% | 1010.6 hPa | 0 mm | - | 76 W/m² | - |
| 1777913472 | 22.78° C | 53% | 1010.6 hPa | 0 mm | - | 81 W/m² | - |
| 1777912871 | 22.78° C | 52% | 1010.6 hPa | 0 mm | - | 95 W/m² | - |
| 1777912271 | 23.33° C | 50% | 1010.6 hPa | 0 mm | - | 110 W/m² | - |
| 1777911671 | 23.33° C | 50% | 1010.6 hPa | 0 mm | - | 128 W/m² | - |
| 1777911071 | 23.33° C | 49% | 1010.6 hPa | 0 mm | - | 148 W/m² | - |
* Rain latest hour (hover to see other rain measurements)
** Current wind speed in m/s (hover to see current wind gust speed)